Main page
METAR-TAF:

Airports :

Mangalore, India

Mangalore Airport

latitude: 12-55N, longitude: 074-53E, elevation: 102 m

Current weather observation

The report was made 19 minutes ago, at 16:30 UTC
Wind 3 kt from the North
Temperature 26°C
Humidity 89%
Pressure 1009 hPa
Visibility: 6000 m
Scattered clouds at a height of 1200 ft

METAR: VOML 301630Z 36003KT 6000 SCT012 26/24 Q1009 NOSIG

Time: 22:19 (16:49 UTC)

Forecast

The report was made 2 hours and 49 minutes ago, at 14:00 UTC
Forecast valid from 30 at 15 UTC to 30 at 24 UTC
Wind 5 kt from the Northwest
Visibility: 6000 m
Scattered clouds at a height of 1200 ft
Scattered clouds at a height of 8000 ft
Temporary
from 30 at 15 UTC to 30 at 18 UTC
Visibility: 3000 m
Scattered clouds at a height of 1200 ft
Few clouds at a height of 2500 ft, Cumulonimbus.
Broken clouds at a height of 8000 ft
rain showers, rain

TAF: VOML 301400Z 3015/3024 32005KT 6000 SCT012 SCT080 TEMPO 3015/3018 3000 SHRA RA SCT012 FEW025CB BKN080

METAR-TAF

Weather observations and forecasts of more than 4000 airports (METAR and TAF reports).

The available stations are represented by yellow and red dots on the map.

Hover mouse over dot to see the name of the station.

Then click to see weather observations and forecasts.

To change the map : click on the green buttons with a black cross to zoom in, on the green button with a dash to zoom out, or on the green arrows for adjacent maps.


METAR-TAF: